createdAt,value
2022-10-31T00:02:25.344Z,97.5
2022-10-31T00:07:23.358Z,97.5
2022-10-31T00:12:21.613Z,97.5
2022-10-31T00:17:19.641Z,97.8
2022-10-31T00:22:17.561Z,98.1
2022-10-31T00:27:15.648Z,98.6
2022-10-31T00:32:13.716Z,99.3
2022-10-31T00:37:11.858Z,99.4
2022-10-31T00:42:09.923Z,99.4
2022-10-31T00:47:07.929Z,100
2022-10-31T00:52:05.982Z,100
2022-10-31T00:57:04.073Z,100
2022-10-31T01:02:02.226Z,100
2022-10-31T01:07:00.248Z,100
2022-10-31T01:11:58.376Z,100
2022-10-31T01:16:56.502Z,100
2022-10-31T01:21:54.544Z,100
2022-10-31T01:26:52.592Z,100
2022-10-31T01:31:50.857Z,100
2022-10-31T01:36:48.927Z,100
2022-10-31T01:41:47.105Z,100
2022-10-31T01:46:45.306Z,100
2022-10-31T01:51:43.263Z,100
2022-10-31T01:56:41.302Z,100
2022-10-31T02:01:39.800Z,100
2022-10-31T02:06:37.739Z,100
2022-10-31T02:11:35.988Z,100
2022-10-31T02:16:34.219Z,100
2022-10-31T02:21:32.347Z,100
2022-10-31T02:26:30.428Z,100
2022-10-31T02:31:28.602Z,100
2022-10-31T02:36:26.573Z,100
2022-10-31T02:41:24.741Z,100
2022-10-31T02:46:22.950Z,100
2022-10-31T02:51:21.216Z,100
2022-10-31T02:56:19.156Z,100
2022-10-31T03:01:17.542Z,100
2022-10-31T03:06:15.907Z,100
2022-10-31T03:11:14.012Z,100
2022-10-31T03:16:11.992Z,100
2022-10-31T03:21:10.133Z,100
2022-10-31T03:26:08.312Z,100
2022-10-31T03:31:07.402Z,100
2022-10-31T03:36:04.789Z,100
2022-10-31T03:41:03.026Z,100
2022-10-31T03:46:01.120Z,100
2022-10-31T03:50:59.202Z,100
2022-10-31T03:55:57.517Z,100
2022-10-31T04:00:55.994Z,100
2022-10-31T04:05:53.764Z,100
2022-10-31T04:10:51.947Z,100
2022-10-31T04:15:50.169Z,100
2022-10-31T04:20:48.497Z,100
2022-10-31T04:25:46.724Z,100
2022-10-31T04:30:44.955Z,100
2022-10-31T04:35:43.313Z,100
2022-10-31T04:40:41.571Z,100
2022-10-31T04:45:39.654Z,100
2022-10-31T04:50:37.832Z,100
2022-10-31T04:55:36.198Z,100
2022-10-31T05:00:34.601Z,100
2022-10-31T05:05:32.597Z,100
2022-10-31T05:10:30.525Z,100
2022-10-31T05:15:28.889Z,100
2022-10-31T05:20:27.147Z,100
2022-10-31T05:25:25.556Z,100
2022-10-31T05:30:23.803Z,100
2022-10-31T05:35:22.126Z,100
2022-10-31T05:40:20.304Z,100
2022-10-31T05:45:18.450Z,100
2022-10-31T05:50:16.874Z,100
2022-10-31T05:55:15.436Z,98.4
2022-10-31T06:00:17.469Z,83.7
2022-10-31T06:05:20.718Z,71.3
2022-10-31T06:10:21.941Z,61.6
2022-10-31T06:15:24.274Z,57.1
2022-10-31T06:20:22.321Z,52.1
2022-10-31T06:25:22.392Z,46.8
2022-10-31T06:30:22.101Z,45
2022-10-31T06:35:21.723Z,40.6
2022-10-31T06:40:20.765Z,39.2
2022-10-31T06:45:19.171Z,38.5
2022-10-31T06:50:17.743Z,38.2
2022-10-31T06:55:16.541Z,37.2
2022-10-31T07:00:16.330Z,34.2
2022-10-31T07:05:15.767Z,33.3
2022-10-31T07:10:15.912Z,32.4
2022-10-31T07:15:14.884Z,30.8
2022-10-31T07:20:13.625Z,30.2
2022-10-31T07:25:12.238Z,29.4
2022-10-31T07:30:10.905Z,28.9
2022-10-31T07:35:09.640Z,28.4
2022-10-31T07:40:08.929Z,28
2022-10-31T07:45:07.319Z,28.3
2022-10-31T07:50:05.665Z,27.4
2022-10-31T07:55:04.165Z,27.1
2022-10-31T08:00:02.592Z,27.2
2022-10-31T08:05:01.328Z,26.3
2022-10-31T08:09:58.987Z,26.2
2022-10-31T08:14:57.428Z,26.2
2022-10-31T08:19:55.541Z,26.1
2022-10-31T08:24:53.748Z,25.6
2022-10-31T08:29:52.040Z,25.6
2022-10-31T08:34:50.137Z,25
2022-10-31T08:39:48.084Z,25.2
2022-10-31T08:44:46.245Z,25.3
2022-10-31T08:49:44.574Z,25.3
2022-10-31T08:54:41.855Z,24.7
2022-10-31T08:59:40.332Z,24.6
2022-10-31T09:04:38.254Z,24.5
2022-10-31T09:09:36.632Z,24.7
2022-10-31T09:14:34.917Z,24.1
2022-10-31T09:19:32.996Z,24.2
2022-10-31T09:24:31.084Z,23.9
2022-10-31T09:29:29.268Z,23.6
2022-10-31T09:34:27.415Z,23.6
2022-10-31T09:39:25.682Z,23.3
2022-10-31T09:44:24.116Z,23.4
2022-10-31T09:49:22.169Z,22.7
2022-10-31T09:54:19.982Z,22.9
2022-10-31T09:59:18.089Z,22.5
2022-10-31T10:04:18.277Z,21.9
2022-10-31T10:09:13.730Z,22.6
2022-10-31T10:14:11.786Z,22.7
2022-10-31T10:19:09.985Z,22.4
2022-10-31T10:24:07.666Z,22.2
2022-10-31T10:29:05.657Z,22.5
2022-10-31T10:34:03.354Z,22.7
2022-10-31T10:39:00.957Z,22.4
2022-10-31T10:43:58.597Z,22.5
2022-10-31T10:48:56.058Z,23
2022-10-31T10:53:53.491Z,23.8
2022-10-31T10:58:51.725Z,23.7
2022-10-31T11:03:50.404Z,24.2
2022-10-31T11:08:47.559Z,24.8
2022-10-31T11:13:44.447Z,24.7
2022-10-31T11:18:40.912Z,26.3
2022-10-31T11:23:37.843Z,28.8
2022-10-31T11:28:34.976Z,28.9
2022-10-31T11:33:32.497Z,30.4
2022-10-31T11:38:30.675Z,30.5
2022-10-31T11:43:29.438Z,30
2022-10-31T11:48:27.733Z,30.6
2022-10-31T11:53:25.658Z,30.5
2022-10-31T11:58:23.481Z,30.7
2022-10-31T12:03:21.609Z,30.8
2022-10-31T12:08:19.822Z,31.1
2022-10-31T12:13:18.016Z,32
2022-10-31T12:18:15.600Z,29.6
2022-10-31T12:23:13.563Z,31.8
2022-10-31T12:28:11.794Z,32.5
2022-10-31T12:33:10.114Z,31.9
2022-10-31T12:38:08.088Z,29.8
2022-10-31T12:43:06.037Z,30.5
2022-10-31T12:48:03.689Z,31.2
2022-10-31T12:53:01.325Z,31.2
2022-10-31T12:57:58.798Z,33.3
2022-10-31T13:02:56.190Z,34
2022-10-31T13:07:53.835Z,35.5
2022-10-31T13:12:51.852Z,33.6
2022-10-31T13:17:49.910Z,34.1
2022-10-31T13:22:47.561Z,36.4
2022-10-31T13:27:44.521Z,39.6
2022-10-31T13:32:42.293Z,38.8
2022-10-31T13:37:39.705Z,39.3
2022-10-31T13:42:37.192Z,42.2
2022-10-31T13:47:34.683Z,42.9
2022-10-31T13:52:32.522Z,43.6
2022-10-31T13:57:33.140Z,44.1
2022-10-31T14:02:27.764Z,45.7
2022-10-31T14:07:25.401Z,46.3
2022-10-31T14:12:23.071Z,47.1
2022-10-31T14:17:20.859Z,48.1
2022-10-31T14:22:18.878Z,48.4
2022-10-31T14:27:16.053Z,49.2
2022-10-31T14:32:14.016Z,51
2022-10-31T14:37:11.723Z,50.6
2022-10-31T14:42:09.698Z,52.6
2022-10-31T14:47:07.377Z,53.3
2022-10-31T14:52:05.093Z,55.9
2022-10-31T14:57:02.717Z,56.9
2022-10-31T15:02:01.085Z,56.9
2022-10-31T15:06:58.715Z,58
2022-10-31T15:11:56.453Z,60.4
2022-10-31T15:16:54.106Z,61.6
2022-10-31T15:21:52.013Z,63.6
2022-10-31T15:26:49.777Z,65.5
2022-10-31T15:31:47.711Z,67.4
2022-10-31T15:36:45.523Z,68.1
2022-10-31T15:41:43.536Z,69.6
2022-10-31T15:46:41.378Z,70.4
2022-10-31T15:51:39.447Z,71.5
2022-10-31T15:56:37.172Z,72.4
2022-10-31T16:01:35.238Z,73.1
2022-10-31T16:06:33.020Z,73.9
2022-10-31T16:11:31.126Z,74
2022-10-31T16:16:36.649Z,74.6
2022-10-31T16:21:27.516Z,74.2
2022-10-31T16:26:25.728Z,74.9
2022-10-31T16:31:23.856Z,75.4
2022-10-31T16:36:34.201Z,76.1
2022-10-31T16:41:20.106Z,76.5
2022-10-31T16:46:18.411Z,76.4
2022-10-31T16:51:16.539Z,75.8
2022-10-31T16:56:14.574Z,77.1
2022-10-31T17:01:12.734Z,78.8
2022-10-31T17:06:10.587Z,79.4
2022-10-31T17:11:08.659Z,80.2
2022-10-31T17:16:06.853Z,81
2022-10-31T17:21:05.123Z,81.3
2022-10-31T17:26:03.138Z,82.1
2022-10-31T17:31:01.090Z,82.1
2022-10-31T17:35:59.247Z,82.7
2022-10-31T17:40:57.934Z,82.8
2022-10-31T17:45:56.048Z,83.5
2022-10-31T17:50:54.177Z,84.1
2022-10-31T17:55:52.360Z,84.4
2022-10-31T18:00:51.283Z,85.1
2022-10-31T18:05:49.107Z,85.4
2022-10-31T18:10:47.494Z,85.6
2022-10-31T18:15:45.582Z,86
2022-10-31T18:20:43.835Z,86.2
2022-10-31T18:25:41.754Z,86.4
2022-10-31T18:30:40.252Z,87.1
2022-10-31T18:35:38.339Z,87
2022-10-31T18:40:36.589Z,87.3
2022-10-31T18:45:46.275Z,87.7
2022-10-31T18:50:32.776Z,88
2022-10-31T18:55:31.404Z,88.8
2022-10-31T19:00:29.877Z,89.4
2022-10-31T19:05:27.910Z,89.8
2022-10-31T19:10:26.180Z,90
2022-10-31T19:15:24.396Z,90.3
2022-10-31T19:20:22.679Z,91.1
2022-10-31T19:25:20.794Z,91.6
2022-10-31T19:30:19.167Z,91.5
2022-10-31T19:35:17.618Z,92.1
2022-10-31T19:40:15.802Z,92.3
2022-10-31T19:45:14.384Z,92.7
2022-10-31T19:50:12.428Z,93.2
2022-10-31T19:55:10.895Z,93.4
2022-10-31T20:00:09.519Z,94.1
2022-10-31T20:05:07.794Z,94.1
2022-10-31T20:10:05.870Z,94.4
2022-10-31T20:15:04.484Z,95.3
2022-10-31T20:25:01.101Z,95.9
2022-10-31T20:29:59.267Z,96
2022-10-31T20:34:57.608Z,96.2
2022-10-31T20:39:56.619Z,95.9
2022-10-31T20:44:54.564Z,96.2
2022-10-31T20:49:52.796Z,96.3
2022-10-31T20:54:51.288Z,96.7
2022-10-31T20:59:49.771Z,97
2022-10-31T21:04:47.779Z,97.1
2022-10-31T21:09:46.178Z,96.5
2022-10-31T21:14:44.398Z,97.3
2022-10-31T21:19:42.870Z,97.6
2022-10-31T21:24:41.169Z,98
2022-10-31T21:29:39.305Z,98.2
2022-10-31T21:34:37.559Z,98.4
2022-10-31T21:39:35.721Z,98.2
2022-10-31T21:44:34.045Z,98.1
2022-10-31T21:49:31.980Z,98.4
2022-10-31T21:54:30.246Z,98.8
2022-10-31T21:59:28.404Z,98.6
2022-10-31T22:04:26.457Z,98.9
2022-10-31T22:09:24.606Z,99.5
2022-10-31T22:14:22.780Z,99.9
2022-10-31T22:19:20.681Z,99.5
2022-10-31T22:24:18.895Z,100
2022-10-31T22:29:17.059Z,99.8
2022-10-31T22:34:18.599Z,100
2022-10-31T22:39:15.859Z,100
2022-10-31T22:44:13.987Z,100
2022-10-31T22:49:12.322Z,100
2022-10-31T22:54:10.364Z,100
2022-10-31T22:59:08.657Z,100
2022-10-31T23:04:06.872Z,100
2022-10-31T23:09:04.946Z,100
2022-10-31T23:14:03.164Z,100
2022-10-31T23:19:01.098Z,100
2022-10-31T23:23:59.197Z,100
2022-10-31T23:28:57.329Z,100
2022-10-31T23:33:55.375Z,100
2022-10-31T23:38:53.512Z,100
2022-10-31T23:43:51.709Z,100
2022-10-31T23:48:49.893Z,100
2022-10-31T23:53:48.009Z,100
2022-10-31T23:58:46.239Z,100
